Terminal Aerodrome Forecast
Issued by NWS Fort Wayne, IN

Home | Current Version | Previous Version | Graphics & Text | Print | Product List | Glossary On
Versions: 1 2 3 4 5 6 7 8 9 10 11 12 13 14 15
000
FTUS43 KIWX 031700
TAFFWA
TAF
KFWA 031740Z 0318/0418 22012G20KT P6SM SCT070 BKN250
     FM040000 20010KT P6SM SCT070 BKN100
     FM041600 22012G18KT P6SM -SHRA BKN050=

USA.gov is the U.S. government's official web portal to all federal, state and local government web resources and services.